Time;durP1;ratioP1;P1;durP2;ratioP2;P2;SDS_P1;SDS_P2;PMS_P1;PMS_P2;Temp;Humidity;BMP_temperature;BMP_pressure;BME280_temperature;BME280_humidity;BME280_pressure;Samples;Min_cycle;Max_cycle;Signal;HPM_P1;HPM_P2
2023/12/16 00:02:02;;;;;;;;;;;;;;;4.08;74.41;100623.44;5096791;28;19912;-79
2023/12/16 00:04:28;;;;;;;;;;;;;;;4.08;74.32;100626.88;5096337;28;19912;-80
2023/12/16 00:06:53;;;;;;;;;;;;;;;4.07;74.29;100635.69;5095956;28;19920;-79
2023/12/16 00:09:19;;;;;;;;;;;;;;;4.02;73.65;100639.56;5096506;28;19919;-79
2023/12/16 00:11:44;;;;;;;;;;;;;;;4.00;73.54;100634.44;5094886;28;19923;-79
2023/12/16 00:14:09;;;;;;;;;;;;;;;3.99;73.72;100632.78;5094936;28;19939;-79
2023/12/16 00:16:35;;;;;;;;;;;;;;;3.97;73.97;100632.06;5095914;28;19913;-80
2023/12/16 00:19:00;;;;;;;;;;;;;;;3.98;74.42;100635.50;5095875;28;19913;-79
2023/12/16 00:21:25;;;;;;;;;;;;;;;3.96;74.11;100638.22;5095592;28;19912;-79
2023/12/16 00:23:51;;;;;;;;;;;;;;;3.93;74.01;100633.22;5095592;28;19916;-79
2023/12/16 00:26:17;;;;;;;;;;;;;;;3.98;74.33;100641.56;5095584;28;19912;-79
2023/12/16 00:28:42;;;;;;;;;;;;;;;3.96;73.78;100638.22;5095390;28;19916;-79
2023/12/16 00:31:08;;;;;;;;;;;;;;;3.95;74.22;100646.16;5095440;28;19919;-79
2023/12/16 00:33:33;;;;;;;;;;;;;;;3.91;73.86;100650.78;5095128;28;19912;-79
2023/12/16 00:35:58;;;;;;;;;;;;;;;3.90;74.22;100650.88;5093737;28;19912;-79
2023/12/16 00:38:25;;;;;;;;;;;;;;;3.90;74.07;100656.13;5095307;28;19937;-78
2023/12/16 00:40:50;;;;;;;;;;;;;;;3.88;73.36;100658.84;5096170;28;19997;-79
2023/12/16 00:43:15;;;;;;;;;;;;;;;3.89;73.95;100670.13;5094729;28;19974;-79
2023/12/16 00:45:41;;;;;;;;;;;;;;;3.85;73.81;100666.88;5095153;28;19922;-78
2023/12/16 00:48:06;;;;;;;;;;;;;;;3.85;74.33;100666.88;5096783;28;19955;-79
2023/12/16 00:50:31;;;;;;;;;;;;;;;3.83;73.90;100677.44;5096694;28;19916;-78
2023/12/16 00:52:57;;;;;;;;;;;;;;;3.86;74.11;100671.16;5096286;28;20373;-79
2023/12/16 00:55:22;;;;;;;;;;;;;;;3.84;74.23;100675.66;5096358;28;19912;-78
2023/12/16 00:57:47;;;;;;;;;;;;;;;3.80;74.02;100677.66;5095333;28;19915;-78
2023/12/16 01:00:13;;;;;;;;;;;;;;;3.80;74.17;100682.88;5096160;28;19916;-78
2023/12/16 01:02:38;;;;;;;;;;;;;;;3.83;74.19;100672.22;5095794;28;19955;-79
2023/12/16 01:05:04;;;;;;;;;;;;;;;3.80;74.07;100668.97;5094160;28;20385;-78
2023/12/16 01:07:29;;;;;;;;;;;;;;;3.80;74.14;100671.59;5095129;28;19950;-79
2023/12/16 01:09:54;;;;;;;;;;;;;;;3.76;74.37;100664.91;5093994;28;19913;-79
2023/12/16 01:12:20;;;;;;;;;;;;;;;3.74;74.45;100657.19;5094992;28;19912;-79
2023/12/16 01:14:45;;;;;;;;;;;;;;;3.74;74.44;100659.81;5096297;28;19912;-78
2023/12/16 01:17:10;;;;;;;;;;;;;;;3.75;74.31;100653.63;5095769;28;19913;-79
2023/12/16 01:19:36;;;;;;;;;;;;;;;3.64;74.38;100655.28;5096054;28;19912;-79
2023/12/16 01:22:01;;;;;;;;;;;;;;;3.64;74.36;100658.75;5096318;28;20313;-78
2023/12/16 01:24:27;;;;;;;;;;;;;;;3.63;74.43;100646.63;5094563;28;20316;-79
2023/12/16 01:26:52;;;;;;;;;;;;;;;3.65;73.95;100657.78;5095863;28;19912;-79
2023/12/16 01:29:18;;;;;;;;;;;;;;;3.65;74.44;100657.78;5095211;28;19912;-78
2023/12/16 01:31:43;;;;;;;;;;;;;;;3.64;74.27;100660.50;5095767;28;19987;-79
2023/12/16 01:34:08;;;;;;;;;;;;;;;3.66;74.33;100664.69;5096328;28;19952;-79
2023/12/16 01:36:33;;;;;;;;;;;;;;;3.68;74.26;100665.41;5096377;28;19919;-79
2023/12/16 01:38:59;;;;;;;;;;;;;;;3.72;74.53;100666.91;5096243;28;19937;-79
2023/12/16 01:41:24;;;;;;;;;;;;;;;3.73;74.50;100678.19;5096190;28;20376;-79
2023/12/16 01:43:49;;;;;;;;;;;;;;;3.73;74.42;100662.53;5096291;28;19923;-79
2023/12/16 01:46:15;;;;;;;;;;;;;;;3.67;73.98;100668.97;5096236;28;19916;-79
2023/12/16 01:48:42;;;;;;;;;;;;;;;3.72;74.53;100681.75;5096807;28;20369;-79
2023/12/16 01:51:07;;;;;;;;;;;;;;;3.73;74.38;100684.25;5098729;28;19912;-79
2023/12/16 01:53:33;;;;;;;;;;;;;;;3.75;74.36;100678.91;5101833;28;19919;-79
2023/12/16 01:55:59;;;;;;;;;;;;;;;3.74;74.47;100675.47;5097859;28;20442;-79
2023/12/16 01:58:24;;;;;;;;;;;;;;;3.69;74.54;100676.69;5094779;28;20401;-79
2023/12/16 02:00:52;;;;;;;;;;;;;;;3.63;74.12;100669.28;5095116;28;19916;-79
2023/12/16 02:03:18;;;;;;;;;;;;;;;3.64;74.55;100669.19;5095290;28;19916;-79
2023/12/16 02:05:44;;;;;;;;;;;;;;;3.66;74.54;100669.06;5095197;28;19927;-79
2023/12/16 02:08:09;;;;;;;;;;;;;;;3.53;74.22;100656.03;5095192;28;19912;-79
2023/12/16 02:10:34;;;;;;;;;;;;;;;3.54;74.62;100662.94;5094289;28;19904;-80
2023/12/16 02:13:03;;;;;;;;;;;;;;;3.59;74.84;100678.28;5093975;28;20317;-79
2023/12/16 02:15:29;;;;;;;;;;;;;;;3.55;74.53;100669.81;5094509;28;19919;-79
2023/12/16 02:17:54;;;;;;;;;;;;;;;3.55;74.90;100677.66;5094956;28;19912;-80
2023/12/16 02:20:19;;;;;;;;;;;;;;;3.59;75.07;100675.66;5094587;28;19920;-79
2023/12/16 02:22:46;;;;;;;;;;;;;;;3.58;74.62;100672.22;5094913;28;20035;-80
2023/12/16 02:25:11;;;;;;;;;;;;;;;3.56;74.23;100681.09;5094580;28;19912;-79
2023/12/16 02:27:37;;;;;;;;;;;;;;;3.56;75.02;100674.09;5093911;28;19998;-79
2023/12/16 02:30:03;;;;;;;;;;;;;;;3.56;74.56;100681.94;5093574;28;19912;-79
2023/12/16 02:32:28;;;;;;;;;;;;;;;3.57;74.64;100673.16;5093525;28;19912;-80
2023/12/16 02:34:54;;;;;;;;;;;;;;;3.60;74.67;100669.50;5093354;28;19966;-79
2023/12/16 02:37:19;;;;;;;;;;;;;;;3.59;74.63;100673.88;5092901;28;19943;-79
2023/12/16 02:39:44;;;;;;;;;;;;;;;3.56;74.50;100666.28;5092726;28;19962;-79
2023/12/16 02:42:10;;;;;;;;;;;;;;;3.57;74.93;100677.53;5092623;28;19920;-78
2023/12/16 02:44:35;;;;;;;;;;;;;;;3.57;74.75;100677.53;5092528;28;19912;-79
2023/12/16 02:47:00;;;;;;;;;;;;;;;3.60;74.70;100682.56;5092400;28;19919;-78
2023/12/16 02:49:26;;;;;;;;;;;;;;;3.56;74.50;100692.38;5092369;28;19912;-79
2023/12/16 02:51:52;;;;;;;;;;;;;;;3.57;74.71;100698.44;5092557;28;19912;-77
2023/12/16 02:54:17;;;;;;;;;;;;;;;3.57;74.82;100708.88;5092592;28;19962;-78
2023/12/16 02:56:43;;;;;;;;;;;;;;;3.61;74.89;100712.97;5092694;28;20381;-78
2023/12/16 02:59:08;;;;;;;;;;;;;;;3.61;74.45;100721.63;5092360;28;20317;-78
2023/12/16 03:01:34;;;;;;;;;;;;;;;3.63;74.75;100724.97;5092621;28;20316;-78
2023/12/16 03:03:59;;;;;;;;;;;;;;;3.68;74.47;100725.50;5092427;28;19916;-78
2023/12/16 03:06:24;;;;;;;;;;;;;;;3.69;74.66;100727.16;5092404;28;19924;-79
2023/12/16 03:08:50;;;;;;;;;;;;;;;3.69;74.24;100724.53;5092343;28;19912;-79
2023/12/16 03:11:15;;;;;;;;;;;;;;;3.71;74.57;100727.06;5090852;28;19951;-78
2023/12/16 03:13:40;;;;;;;;;;;;;;;3.71;74.40;100733.13;5090856;28;19908;-78
2023/12/16 03:16:06;;;;;;;;;;;;;;;3.70;74.31;100733.22;5090779;28;19954;-78
2023/12/16 03:18:31;;;;;;;;;;;;;;;3.66;74.26;100736.97;5090855;28;19908;-78
2023/12/16 03:20:56;;;;;;;;;;;;;;;3.58;74.38;100731.44;5092010;28;19912;-79
2023/12/16 03:23:22;;;;;;;;;;;;;;;3.56;74.73;100734.16;5091918;28;20417;-79
2023/12/16 03:25:47;;;;;;;;;;;;;;;3.56;74.61;100735.94;5091865;28;20368;-78
2023/12/16 03:28:12;;;;;;;;;;;;;;;3.56;74.71;100742.00;5091860;28;20432;-79
2023/12/16 03:30:39;;;;;;;;;;;;;;;3.56;74.58;100743.78;5097873;28;20403;-78
2023/12/16 03:33:04;;;;;;;;;;;;;;;3.48;74.77;100747.72;5098561;28;19922;-79
2023/12/16 03:35:30;;;;;;;;;;;;;;;3.47;74.92;100745.22;5097371;28;20496;-78
2023/12/16 03:37:56;;;;;;;;;;;;;;;3.46;75.02;100748.78;5097218;28;19916;-78
2023/12/16 03:40:21;;;;;;;;;;;;;;;3.47;75.00;100758.28;5098621;28;19912;-78
2023/12/16 03:42:46;;;;;;;;;;;;;;;3.51;74.69;100767.56;5097197;28;19916;-78
2023/12/16 03:45:12;;;;;;;;;;;;;;;3.47;74.99;100771.34;5098484;28;19912;-78
2023/12/16 03:47:37;;;;;;;;;;;;;;;3.44;74.78;100782.81;5098486;28;20308;-78
2023/12/16 03:50:03;;;;;;;;;;;;;;;3.45;75.14;100779.28;5098515;28;20286;-77
2023/12/16 03:52:28;;;;;;;;;;;;;;;3.36;75.35;100781.66;5097473;28;19916;-78
2023/12/16 03:54:53;;;;;;;;;;;;;;;3.29;75.21;100778.63;5099122;28;19912;-79
2023/12/16 03:57:19;;;;;;;;;;;;;;;3.29;75.27;100781.22;5099980;28;19933;-78
2023/12/16 03:59:44;;;;;;;;;;;;;;;3.33;75.47;100776.63;5099841;28;20002;-77
2023/12/16 04:02:09;;;;;;;;;;;;;;;3.35;75.31;100779.97;5098376;28;19908;-78
2023/12/16 04:04:35;;;;;;;;;;;;;;;3.36;75.15;100774.66;5099816;28;19916;-78
2023/12/16 04:07:01;;;;;;;;;;;;;;;3.36;75.23;100773.81;5098165;28;19920;-79
2023/12/16 04:09:29;;;;;;;;;;;;;;;3.34;75.03;100766.09;5099840;28;19981;-78
2023/12/16 04:11:54;;;;;;;;;;;;;;;3.33;75.26;100769.66;5098393;28;20388;-78
2023/12/16 04:14:20;;;;;;;;;;;;;;;3.31;75.33;100768.91;5098136;28;19912;-79
2023/12/16 04:16:46;;;;;;;;;;;;;;;3.35;75.73;100766.94;5098173;28;19913;-78
2023/12/16 04:19:13;;;;;;;;;;;;;;;3.37;75.31;100775.50;5096298;28;20205;-78
2023/12/16 04:21:38;;;;;;;;;;;;;;;3.32;75.33;100777.56;5098296;28;19943;-79
2023/12/16 04:24:04;;;;;;;;;;;;;;;3.31;75.49;100781.13;5098289;28;19973;-78
2023/12/16 04:26:29;;;;;;;;;;;;;;;3.28;75.35;100781.31;5098248;28;19916;-79
2023/12/16 04:28:54;;;;;;;;;;;;;;;3.30;75.37;100780.28;5098177;28;20415;-79
2023/12/16 04:31:20;;;;;;;;;;;;;;;3.34;75.64;100776.53;5098404;28;20381;-78
2023/12/16 04:33:45;;;;;;;;;;;;;;;3.40;75.11;100796.19;5098116;28;19935;-79
2023/12/16 04:36:14;;;;;;;;;;;;;;;3.40;75.63;100793.56;5098005;28;19912;-78
2023/12/16 04:38:40;;;;;;;;;;;;;;;3.44;75.27;100806.31;5098203;28;19934;-79
2023/12/16 04:41:05;;;;;;;;;;;;;;;3.45;74.86;100800.16;5095549;28;20392;-79
2023/12/16 04:43:30;;;;;;;;;;;;;;;3.46;75.10;100812.28;5095068;28;20290;-79
2023/12/16 04:45:56;;;;;;;;;;;;;;;3.41;75.14;100816.13;5094846;28;20429;-78
2023/12/16 04:48:21;;;;;;;;;;;;;;;3.35;75.53;100806.94;5093677;28;20452;-79
2023/12/16 04:50:46;;;;;;;;;;;;;;;3.34;75.63;100812.25;5094945;28;19994;-80
2023/12/16 04:53:11;;;;;;;;;;;;;;;3.37;75.22;100819.88;5095309;28;19912;-79
2023/12/16 04:55:37;;;;;;;;;;;;;;;3.37;75.29;100831.16;5095389;28;19942;-79
2023/12/16 04:58:03;;;;;;;;;;;;;;;3.37;75.53;100832.94;5096054;28;19908;-79
2023/12/16 05:00:29;;;;;;;;;;;;;;;3.39;75.26;100839.72;5095926;28;20407;-79
2023/12/16 05:02:54;;;;;;;;;;;;;;;3.39;75.43;100836.28;5096370;28;19916;-80
2023/12/16 05:05:20;;;;;;;;;;;;;;;3.36;75.35;100850.38;5097336;28;19912;-80
2023/12/16 05:07:45;;;;;;;;;;;;;;;3.31;75.50;100856.81;5099934;28;19916;-80
2023/12/16 05:10:10;;;;;;;;;;;;;;;3.29;75.27;100858.69;5107750;28;19916;-80
2023/12/16 05:12:37;;;;;;;;;;;;;;;3.26;75.47;100862.34;5104296;28;20355;-80
2023/12/16 05:15:03;;;;;;;;;;;;;;;3.28;75.53;100859.63;5104603;28;20011;-81
2023/12/16 05:17:28;;;;;;;;;;;;;;;3.29;75.50;100859.53;5106904;28;19912;-81
2023/12/16 05:19:54;;;;;;;;;;;;;;;3.35;75.50;100866.97;5108212;28;19912;-81
2023/12/16 05:22:19;;;;;;;;;;;;;;;3.39;75.53;100862.38;5108358;28;19954;-82
2023/12/16 05:24:47;;;;;;;;;;;;;;;3.40;75.25;100864.06;5109807;28;19990;-82
2023/12/16 05:27:13;;;;;;;;;;;;;;;3.38;75.13;100860.69;5111798;28;19916;-82
2023/12/16 05:29:42;;;;;;;;;;;;;;;3.34;75.66;100870.50;5114466;28;19912;-83
2023/12/16 05:32:08;;;;;;;;;;;;;;;3.37;75.33;100866.88;5115251;28;19912;-82
2023/12/16 05:34:35;;;;;;;;;;;;;;;3.35;75.51;100874.78;5119971;28;19904;-83
2023/12/16 05:37:46;;;;;;;;;;;;;;;3.35;75.41;100872.19;5382358;22;19968;-86
2023/12/16 06:23:37;;;;;;;;;;;;;;;3.32;75.79;100942.03;5378459;22;19909;-84
2023/12/16 06:29:12;;;;;;;;;;;;;;;3.33;75.52;100961.97;5079272;28;19931;-82
2023/12/16 06:31:37;;;;;;;;;;;;;;;3.32;75.20;100974.19;5079244;28;19909;-83
2023/12/16 06:34:04;;;;;;;;;;;;;;;1.54;75.41;100682.84;5078689;28;19908;-83
2023/12/16 06:36:30;;;;;;;;;;;;;;;3.31;75.46;100980.34;5060929;28;19928;-82
2023/12/16 06:38:55;;;;;;;;;;;;;;;3.35;75.46;100984.44;5077027;28;19920;-82
2023/12/16 06:41:22;;;;;;;;;;;;;;;3.37;75.54;100989.56;5060561;28;19943;-82
2023/12/16 06:43:47;;;;;;;;;;;;;;;3.33;75.42;100994.13;5061706;28;19924;-83
2023/12/16 06:52:46;;;;;;;;;;;;;;;3.38;75.26;101004.28;5061993;28;19969;-82
2023/12/16 06:55:39;;;;;;;;;;;;;;;3.41;75.33;101012.75;5064775;28;19957;-82
2023/12/16 07:07:40;;;;;;;;;;;;;;;3.44;74.93;101030.84;5239796;22;19916;-83
2023/12/16 07:10:35;;;;;;;;;;;;;;;3.47;75.04;101028.03;5056955;28;19988;-84
2023/12/16 07:16:09;;;;;;;;;;;;;;;3.49;75.22;101041.84;5058519;28;19920;-83
2023/12/16 07:24:21;;;;;;;;;;;;;;;3.60;74.70;101049.00;5132626;22;19908;-84
2023/12/16 07:27:00;;;;;;;;;;;;;;;3.51;74.48;101049.56;5119725;28;19928;-85
2023/12/16 07:47:05;;;;;;;;;;;;;;;3.51;74.87;101055.63;5328877;22;19915;-86
2023/12/16 07:52:54;;;;;;;;;;;;;;;3.53;74.99;101060.75;5589870;22;19936;-88
2023/12/16 08:53:48;;;;;;;;;;;;;;;3.75;74.48;101134.25;5060355;28;19979;-88
2023/12/16 08:59:26;;;;;;;;;;;;;;;3.92;74.21;101129.75;5486075;23;19933;-88
2023/12/16 09:02:36;;;;;;;;;;;;;;;3.91;74.27;101128.06;5063587;28;19920;-89
2023/12/16 09:51:16;;;;;;;;;;;;;;;3.71;74.86;101132.75;5060067;28;19940;-88
2023/12/16 10:02:47;;;;;;;;;;;;;;;3.94;74.15;101131.34;5170596;22;19917;-87
2023/12/16 10:31:27;;;;;;;;;;;;;;;3.92;73.95;101140.22;5333248;22;19916;-89
2023/12/16 10:33:54;;;;;;;;;;;;;;;3.92;73.98;101143.66;5031962;28;19909;-88
2023/12/16 10:36:35;;;;;;;;;;;;;;;3.92;73.80;101138.44;5062686;28;19912;-87
2023/12/16 10:42:07;;;;;;;;;;;;;;;3.93;74.20;101129.66;5366597;22;19929;-88
2023/12/16 10:44:32;;;;;;;;;;;;;;;3.99;73.98;101128.44;5076948;28;19940;-88
2023/12/16 10:47:19;;;;;;;;;;;;;;;3.99;73.82;101133.66;5058654;28;20501;-88
2023/12/16 10:53:11;;;;;;;;;;;;;;;4.00;73.79;101127.50;5250987;22;20004;-87
2023/12/16 10:55:55;;;;;;;;;;;;;;;4.00;74.05;101127.50;5067716;28;20321;-85
2023/12/16 10:58:39;;;;;;;;;;;;;;;4.02;73.91;101117.78;5070035;28;19913;-85
2023/12/16 11:04:18;;;;;;;;;;;;;;;3.92;73.91;101119.31;5293471;22;19929;-85
2023/12/16 11:13:16;;;;;;;;;;;;;;;3.81;74.46;101131.28;5177246;22;19924;-86
2023/12/16 11:19:06;;;;;;;;;;;;;;;3.90;74.29;101127.25;4883513;22;17575164;-87
2023/12/16 11:21:59;;;;;;;;;;;;;;;3.93;74.29;101131.44;5025470;28;19909;-87
2023/12/16 11:24:59;;;;;;;;;;;;;;;4.01;74.19;101130.00;5037631;28;19993;-86
2023/12/16 11:40:30;;;;;;;;;;;;;;;4.11;73.93;101128.50;5128596;22;19908;-86
2023/12/16 11:43:18;;;;;;;;;;;;;;;4.15;73.96;101123.91;5060015;28;19920;-87
2023/12/16 11:46:21;;;;;;;;;;;;;;;4.11;73.82;101115.41;5042967;28;19905;-86
2023/12/16 11:48:49;;;;;;;;;;;;;;;4.14;74.23;101128.28;5076123;28;19925;-86
2023/12/16 11:51:15;;;;;;;;;;;;;;;4.18;74.30;101131.56;5074012;28;19920;-87
2023/12/16 11:53:40;;;;;;;;;;;;;;;4.22;73.78;101132.19;5050954;28;19916;-86
2023/12/16 11:56:06;;;;;;;;;;;;;;;4.21;73.65;101139.19;5065410;28;19917;-87
2023/12/16 12:01:48;;;;;;;;;;;;;;;4.03;73.56;101125.53;5140620;22;19925;-87
2023/12/16 12:04:22;;;;;;;;;;;;;;;3.95;74.05;101126.94;5080921;28;19945;-87
2023/12/16 12:07:13;;;;;;;;;;;;;;;3.91;74.14;101131.53;5082642;28;19909;-87
2023/12/16 12:09:47;;;;;;;;;;;;;;;3.91;74.21;101130.69;5040994;28;19912;-85
2023/12/16 12:12:13;;;;;;;;;;;;;;;3.91;74.43;101133.31;5039600;28;19929;-87
2023/12/16 12:20:57;;;;;;;;;;;;;;;4.01;74.06;101143.09;5160113;22;19920;-84
2023/12/16 12:23:32;;;;;;;;;;;;;;;4.02;74.19;101146.53;5081143;28;19946;-85
2023/12/16 12:26:01;;;;;;;;;;;;;;;4.02;74.15;101143.91;5065653;28;19929;-84
2023/12/16 12:31:49;;;;;;;;;;;;;;;4.03;74.46;101130.75;5061297;28;19912;-85
2023/12/16 12:37:15;;;;;;;;;;;;;;;3.98;74.41;101139.81;5212063;22;19912;-85
2023/12/16 12:42:26;;;;;;;;;;;;;;;3.98;74.67;101135.44;4759089;26;19909;-86
2023/12/16 13:03:22;;;;;;;;;;;;;;;3.98;74.80;101176.41;5079899;28;19920;-85
2023/12/16 13:18:28;;;;;;;;;;;;;;;3.92;74.19;101197.69;5171015;22;19909;-88
2023/12/16 13:24:07;;;;;;;;;;;;;;;3.91;74.69;101198.63;5414117;22;19909;-89
2023/12/16 13:26:46;;;;;;;;;;;;;;;3.90;74.68;101207.41;5080750;28;19921;-87
2023/12/16 13:29:25;;;;;;;;;;;;;;;3.87;74.83;101207.59;5080801;28;19901;-87
2023/12/16 13:32:05;;;;;;;;;;;;;;;3.85;75.08;101212.91;5080595;28;19909;-88
2023/12/16 13:34:46;;;;;;;;;;;;;;;3.83;75.13;101214.78;5078141;28;19904;-86
2023/12/16 13:48:44;;;;;;;;;;;;;;;3.78;75.37;101224.66;4194012;22;19991;-87
2023/12/16 13:57:43;;;;;;;;;;;;;;;3.77;75.17;101243.88;5161286;22;19944;-89
2023/12/16 14:03:21;;;;;;;;;;;;;;;3.72;75.13;101252.00;5312192;22;19908;-89
2023/12/16 17:32:01;;;;;;;;;;;;;;;3.70;75.93;101530.72;5758022;22;19966;-88
2023/12/16 17:38:13;;;;;;;;;;;;;;;3.74;75.98;101529.66;5081263;28;19911;-86
2023/12/16 17:41:23;;;;;;;;;;;;;;;3.73;75.88;101522.75;5018423;28;19925;-87
2023/12/16 17:44:27;;;;;;;;;;;;;;;3.71;75.86;101542.03;5040287;28;19925;-88
2023/12/16 17:47:26;;;;;;;;;;;;;;;3.71;76.03;101542.88;5040101;28;19906;-90
2023/12/16 18:12:20;;;;;;;;;;;;;;;3.81;75.66;101549.28;5219148;22;19909;-88
2023/12/16 18:15:21;;;;;;;;;;;;;;;3.79;75.57;101547.69;5079298;28;19972;-87
2023/12/16 18:35:53;;;;;;;;;;;;;;;3.75;75.32;101559.25;5080174;28;19951;-87
2023/12/16 18:42:00;;;;;;;;;;;;;;;3.71;75.47;101566.38;4999771;28;19913;-87
2023/12/16 18:44:45;;;;;;;;;;;;;;;3.71;75.77;101565.53;4999310;28;19906;-87
2023/12/16 18:47:28;;;;;;;;;;;;;;;3.72;75.36;101559.41;4983626;28;19941;-87
2023/12/16 18:55:20;;;;;;;;;;;;;;;3.70;75.41;101567.31;5112766;22;19972;-86
2023/12/16 18:58:02;;;;;;;;;;;;;;;3.68;75.62;101573.53;5015733;28;19913;-87
2023/12/16 19:01:05;;;;;;;;;;;;;;;3.66;75.70;101575.41;5018577;28;20050;-86
2023/12/16 19:04:14;;;;;;;;;;;;;;;3.65;75.65;101578.94;5019079;28;19936;-87
2023/12/16 19:19:43;;;;;;;;;;;;;;;3.67;75.52;101575.31;4980174;28;19925;-84
2023/12/16 19:28:34;;;;;;;;;;;;;;;3.71;75.34;101569.00;4853307;26;19908;-86
2023/12/16 19:31:03;;;;;;;;;;;;;;;3.69;75.73;101575.22;5058243;28;19913;-85
2023/12/16 19:37:15;;;;;;;;;;;;;;;3.73;75.64;101575.00;5038408;28;19913;-86
2023/12/16 19:39:44;;;;;;;;;;;;;;;3.73;75.48;101585.44;5038525;28;19918;-86
2023/12/16 19:42:11;;;;;;;;;;;;;;;3.74;75.53;101583.69;5038456;28;20003;-85
2023/12/16 19:47:40;;;;;;;;;;;;;;;3.71;75.53;101600.34;5038378;28;19932;-84
2023/12/16 19:50:10;;;;;;;;;;;;;;;3.64;75.39;101596.38;5005299;28;19906;-84
2023/12/16 19:58:28;;;;;;;;;;;;;;;3.73;75.13;101608.13;4702958;26;19917;-87
2023/12/16 20:04:09;;;;;;;;;;;;;;;3.72;75.41;101607.28;5107556;22;19980;-85
2023/12/16 20:07:00;;;;;;;;;;;;;;;3.73;75.57;101610.72;5058075;28;19913;-86
2023/12/16 20:09:30;;;;;;;;;;;;;;;3.74;75.32;101615.03;5058969;28;19913;-86
2023/12/16 20:12:21;;;;;;;;;;;;;;;3.76;75.21;101621.88;5007663;28;19905;-85
2023/12/16 20:21:19;;;;;;;;;;;;;;;3.75;75.27;101628.00;5096156;22;19908;-82
2023/12/16 20:24:09;;;;;;;;;;;;;;;3.75;75.29;101633.25;5041501;28;19905;-82
2023/12/16 20:26:39;;;;;;;;;;;;;;;3.72;75.59;101635.19;5041505;28;19905;-83
2023/12/16 20:29:05;;;;;;;;;;;;;;;3.72;75.28;101633.41;5041671;28;19906;-85
2023/12/16 20:31:33;;;;;;;;;;;;;;;3.67;75.55;101638.00;5008990;28;19964;-83
2023/12/16 20:34:11;;;;;;;;;;;;;;;3.66;75.64;101643.31;5024950;28;19922;-82
2023/12/16 20:45:51;;;;;;;;;;;;;;;3.67;75.98;101645.84;5201989;22;19908;-84
2023/12/16 20:48:23;;;;;;;;;;;;;;;3.67;75.82;101645.84;5080843;28;19905;-83
2023/12/16 20:50:52;;;;;;;;;;;;;;;3.66;75.77;101646.75;5047772;28;19972;-85
2023/12/16 20:53:29;;;;;;;;;;;;;;;3.67;75.74;101651.06;5081988;28;19921;-83
2023/12/16 20:59:06;;;;;;;;;;;;;;;3.65;76.02;101657.28;5080091;22;19968;-84
2023/12/16 21:01:36;;;;;;;;;;;;;;;3.67;75.72;101663.28;5081619;28;19911;-85
2023/12/16 21:04:06;;;;;;;;;;;;;;;3.67;75.78;101651.06;5081521;28;19904;-85
2023/12/16 21:07:07;;;;;;;;;;;;;;;3.66;75.70;101658.97;5078882;28;19905;-83
2023/12/16 21:09:47;;;;;;;;;;;;;;;3.66;75.67;101665.06;5048438;28;19917;-85
2023/12/16 21:18:25;;;;;;;;;;;;;;;3.56;75.47;101663.84;5067395;28;19920;-83
2023/12/16 21:24:15;;;;;;;;;;;;;;;3.51;75.62;101666.72;5141941;22;19989;-83
2023/12/16 21:26:51;;;;;;;;;;;;;;;3.57;75.55;101660.31;5081250;28;19905;-83
2023/12/16 21:29:25;;;;;;;;;;;;;;;3.59;75.66;101663.69;5059856;28;19905;-83
2023/12/16 21:31:51;;;;;;;;;;;;;;;3.59;75.61;101674.13;5059204;28;19920;-83
2023/12/16 21:34:19;;;;;;;;;;;;;;;3.61;75.50;101674.91;5027164;28;19905;-83
2023/12/16 21:36:55;;;;;;;;;;;;;;;3.62;75.06;101678.34;5060438;28;19913;-84
2023/12/16 21:39:34;;;;;;;;;;;;;;;3.63;75.39;101680.03;5060195;28;19940;-86
2023/12/16 21:42:04;;;;;;;;;;;;;;;3.64;75.51;101686.97;5058110;28;19936;-83
2023/12/16 21:44:38;;;;;;;;;;;;;;;3.61;75.55;101684.50;5043498;28;19906;-83
2023/12/16 21:47:06;;;;;;;;;;;;;;;3.63;75.51;101691.34;5060011;28;19905;-83
2023/12/16 21:50:03;;;;;;;;;;;;;;;3.63;75.69;101691.34;5043375;28;19932;-82
2023/12/16 21:55:38;;;;;;;;;;;;;;;3.66;76.05;101699.00;5141441;22;19977;-82
2023/12/16 22:01:49;;;;;;;;;;;;;;;3.73;75.58;101708.25;5080944;28;19989;-83
2023/12/16 22:04:34;;;;;;;;;;;;;;;3.74;75.69;101699.47;5038582;28;19941;-84
2023/12/16 22:07:08;;;;;;;;;;;;;;;3.75;75.81;101708.16;5038814;28;19957;-83
2023/12/16 22:09:35;;;;;;;;;;;;;;;3.74;75.44;101714.31;5037455;28;19906;-83
2023/12/16 22:12:34;;;;;;;;;;;;;;;3.73;75.39;101716.06;5007183;28;19917;-85
2023/12/16 22:15:08;;;;;;;;;;;;;;;3.74;75.89;101720.38;4980981;28;19930;-86
2023/12/16 22:17:45;;;;;;;;;;;;;;;3.75;75.52;101719.47;4981087;28;19958;-85
2023/12/16 22:23:08;;;;;;;;;;;;;;;3.76;75.63;101723.75;4937686;26;19921;-84
2023/12/16 22:26:02;;;;;;;;;;;;;;;3.76;75.63;101715.06;5059280;28;19906;-85
2023/12/16 22:28:43;;;;;;;;;;;;;;;3.76;75.70;101723.75;5060083;28;19912;-84
2023/12/16 22:32:07;;;;;;;;;;;;;;;3.76;75.58;101722.91;5019794;28;19961;-84
2023/12/16 22:35:12;;;;;;;;;;;;;;;3.77;75.80;101724.59;5019704;28;19969;-84
2023/12/16 22:40:45;;;;;;;;;;;;;;;3.77;75.76;101727.22;4812598;26;19916;-85
2023/12/16 22:43:41;;;;;;;;;;;;;;;3.77;75.67;101732.44;5039033;28;19924;-83
2023/12/16 22:46:14;;;;;;;;;;;;;;;3.77;75.52;101730.66;4990033;28;19905;-83
2023/12/16 22:48:50;;;;;;;;;;;;;;;3.75;75.31;101721.22;5036877;28;19905;-85
2023/12/16 22:51:37;;;;;;;;;;;;;;;3.72;75.50;101724.84;5039131;28;19968;-84
2023/12/16 22:54:12;;;;;;;;;;;;;;;3.74;75.33;101724.75;5039216;28;19985;-83
2023/12/16 22:57:00;;;;;;;;;;;;;;;3.72;75.50;101722.22;4985749;28;19928;-81
2023/12/16 22:59:25;;;;;;;;;;;;;;;3.72;75.58;101724.00;5018768;28;19938;-83
2023/12/16 23:01:51;;;;;;;;;;;;;;;3.72;75.45;101732.69;5017846;28;19906;-82
2023/12/16 23:04:18;;;;;;;;;;;;;;;3.72;75.17;101726.63;5017017;28;19918;-81
2023/12/16 23:06:46;;;;;;;;;;;;;;;3.73;75.11;101725.69;5017099;28;19953;-82
2023/12/16 23:09:15;;;;;;;;;;;;;;;3.72;75.27;101732.69;5016582;28;19910;-82
2023/12/16 23:11:47;;;;;;;;;;;;;;;3.71;75.35;101723.13;5002738;28;19922;-82
2023/12/16 23:14:39;;;;;;;;;;;;;;;3.71;75.11;101724.88;5035553;28;19932;-82
2023/12/16 23:17:06;;;;;;;;;;;;;;;3.71;75.14;101724.88;5018707;28;19937;-83
2023/12/16 23:19:31;;;;;;;;;;;;;;;3.72;75.06;101727.47;5013222;28;20495;-82
2023/12/16 23:21:57;;;;;;;;;;;;;;;3.70;75.22;101716.22;4999825;28;19945;-82
2023/12/16 23:24:27;;;;;;;;;;;;;;;3.72;75.12;101717.00;4998361;28;19913;-82
2023/12/16 23:27:16;;;;;;;;;;;;;;;3.74;75.08;101722.16;4982312;28;19941;-82
2023/12/16 23:29:57;;;;;;;;;;;;;;;3.71;75.37;101719.66;5001826;28;19953;-83
2023/12/16 23:32:26;;;;;;;;;;;;;;;3.70;75.30;101723.19;5018732;28;19932;-82
2023/12/16 23:34:51;;;;;;;;;;;;;;;3.68;75.17;101718.06;5018537;28;19918;-82
2023/12/16 23:37:17;;;;;;;;;;;;;;;3.66;75.09;101726.91;5084024;22;19964;-83
2023/12/16 23:39:43;;;;;;;;;;;;;;;3.64;75.22;101726.13;5080221;28;19904;-83
2023/12/16 23:42:08;;;;;;;;;;;;;;;3.64;75.40;101728.75;5063953;28;19904;-83
2023/12/16 23:44:34;;;;;;;;;;;;;;;3.64;75.28;101726.13;5095407;28;19939;-82
2023/12/16 23:46:59;;;;;;;;;;;;;;;3.60;75.49;101725.44;5098759;28;19931;-82
2023/12/16 23:49:24;;;;;;;;;;;;;;;3.58;75.50;101732.53;5084664;28;19920;-83
2023/12/16 23:51:54;;;;;;;;;;;;;;;3.58;75.59;101735.13;5101899;28;19916;-82
2023/12/16 23:54:21;;;;;;;;;;;;;;;3.55;75.31;101730.06;5101442;28;19912;-82
2023/12/16 23:56:46;;;;;;;;;;;;;;;3.52;75.69;101730.22;5100549;28;19920;-82
2023/12/16 23:59:12;;;;;;;;;;;;;;;3.52;75.51;101732.84;5097290;28;19913;-82
